Time;durP1;ratioP1;P1;durP2;ratioP2;P2;SDS_P1;SDS_P2;PMS_P1;PMS_P2;Temp;Humidity;BMP_temperature;BMP_pressure;BME280_temperature;BME280_humidity;BME280_pressure;Samples;Min_cycle;Max_cycle;Signal;HPM_P1;HPM_P2
2022/10/30 00:01:00;;;;;;;11.73;5.58;;;;;;;10.61;100.00;99920.80;1783991;80;20974;-73
2022/10/30 00:03:26;;;;;;;8.70;5.33;;;;;;;10.61;100.00;99926.20;1784132;80;21017;-73
2022/10/30 00:05:54;;;;;;;11.90;5.70;;;;;;;10.61;100.00;99923.50;1783935;80;21080;-75
2022/10/30 00:08:24;;;;;;;10.53;5.67;;;;;;;10.61;100.00;99922.14;1784055;80;21022;-75
2022/10/30 00:10:51;;;;;;;10.80;5.70;;;;;;;10.61;100.00;99915.91;1784268;80;20981;-74
2022/10/30 00:13:20;;;;;;;9.65;5.40;;;;;;;10.61;100.00;99922.14;1777798;80;21054;-74
2022/10/30 00:15:49;;;;;;;9.08;5.42;;;;;;;10.61;100.00;99921.31;1775663;81;21018;-74
2022/10/30 00:18:16;;;;;;;11.45;5.80;;;;;;;10.61;100.00;99925.37;1775732;81;21420;-78
2022/10/30 00:20:43;;;;;;;12.18;5.75;;;;;;;10.60;100.00;99918.26;1775709;80;21013;-73
2022/10/30 00:23:09;;;;;;;11.70;5.65;;;;;;;10.60;100.00;99915.04;1775521;80;21006;-72
2022/10/30 00:25:37;;;;;;;7.70;5.22;;;;;;;10.61;100.00;99922.66;1775776;81;21010;-77
2022/10/30 00:28:06;;;;;;;9.90;5.80;;;;;;;10.60;100.00;99911.50;1775770;81;20990;-73
2022/10/30 00:30:34;;;;;;;11.90;5.60;;;;;;;10.61;100.00;99911.84;1775345;80;21018;-75
2022/10/30 00:33:01;;;;;;;9.80;5.75;;;;;;;10.61;100.00;99916.73;1775691;81;20998;-76
2022/10/30 00:35:29;;;;;;;9.73;5.17;;;;;;;10.61;100.00;99919.95;1775372;81;21065;-75
2022/10/30 00:37:56;;;;;;;9.20;5.33;;;;;;;10.61;100.00;99924.84;1775636;81;20990;-74
2022/10/30 00:40:23;;;;;;;8.33;5.00;;;;;;;10.62;100.00;99936.50;1775672;81;21046;-74
2022/10/30 00:42:49;;;;;;;10.40;5.25;;;;;;;10.61;100.00;99938.37;1775720;81;20959;-74
2022/10/30 00:45:16;;;;;;;11.28;5.67;;;;;;;10.60;100.00;99939.37;1775375;81;21004;-75
2022/10/30 00:47:48;;;;;;;9.93;5.80;;;;;;;10.61;100.00;99921.31;1775724;81;20986;-77
2022/10/30 00:50:20;;;;;;;14.00;5.40;;;;;;;10.60;100.00;99930.42;1775469;81;21018;-74
2022/10/30 00:53:04;;;;;;;10.00;4.95;;;;;;;10.59;100.00;99922.83;1775804;81;21063;-74
2022/10/30 00:55:41;;;;;;;14.50;5.83;;;;;;;10.59;100.00;99923.35;1804053;79;21011;-74
2022/10/30 00:58:10;;;;;;;11.50;5.45;;;;;;;10.60;100.00;99919.61;1813757;79;21504;-73
2022/10/30 01:00:39;;;;;;;9.23;5.28;;;;;;;10.60;100.00;99923.66;1813426;79;21078;-74
2022/10/30 01:03:06;;;;;;;11.88;5.67;;;;;;;10.61;100.00;99926.72;1813794;79;20943;-73
2022/10/30 01:05:33;;;;;;;10.68;5.30;;;;;;;10.63;100.00;99928.73;1813885;79;21015;-73
2022/10/30 01:08:01;;;;;;;11.48;5.90;;;;;;;10.64;100.00;99939.37;1813876;79;20987;-74
2022/10/30 01:10:28;;;;;;;8.35;5.60;;;;;;;10.63;100.00;99929.56;1813658;79;20991;-74
2022/10/30 01:12:55;;;;;;;12.58;5.42;;;;;;;10.64;100.00;99919.10;1790688;79;21007;-74
2022/10/30 01:15:36;;;;;;;12.23;5.45;;;;;;;10.66;100.00;99918.06;1814018;79;21007;-74
2022/10/30 01:18:29;;;;;;;10.82;5.50;;;;;;;10.66;100.00;99914.01;1727683;83;21074;-75
2022/10/30 01:21:10;;;;;;;12.65;5.87;;;;;;;10.66;100.00;99915.36;1728166;82;21001;-75
2022/10/30 01:23:47;;;;;;;12.35;5.55;;;;;;;10.66;100.00;99918.06;1727578;83;21057;-77
2022/10/30 01:26:25;;;;;;;11.08;5.90;;;;;;;10.66;100.00;99915.36;1691160;83;21109;-76
2022/10/30 01:29:16;;;;;;;9.48;5.00;;;;;;;10.67;100.00;99914.36;1688768;85;21062;-74
2022/10/30 01:32:14;;;;;;;10.10;5.55;;;;;;;10.68;100.00;99910.62;1689173;85;21054;-75
2022/10/30 01:35:14;;;;;;;10.72;5.70;;;;;;;10.68;100.00;99916.89;1624916;88;21091;-74
2022/10/30 01:38:05;;;;;;;10.32;5.47;;;;;;;10.69;100.00;99926.67;1625057;88;21067;-76
2022/10/30 01:40:32;;;;;;;11.15;5.35;;;;;;;10.69;100.00;99919.08;1534487;89;21075;-74
2022/10/30 01:42:59;;;;;;;10.78;5.25;;;;;;;10.68;100.00;99934.47;1534880;93;21122;-74
2022/10/30 01:45:50;;;;;;;7.97;5.15;;;;;;;10.69;100.00;99938.01;1534610;93;21096;-74
2022/10/30 01:48:44;;;;;;;10.82;5.83;;;;;;;10.69;100.00;99935.30;1534681;93;21173;-76
2022/10/30 01:51:54;;;;;;;9.03;4.97;;;;;;;10.70;100.00;99942.41;1532134;93;21128;-75
2022/10/30 01:54:29;;;;;;;10.23;5.60;;;;;;;10.71;100.00;99934.61;1492958;94;21656;-73
2022/10/30 01:57:12;;;;;;;10.40;5.70;;;;;;;10.72;100.00;99936.31;1476951;97;21065;-73
2022/10/30 02:00:08;;;;;;;12.98;5.70;;;;;;;10.72;100.00;99937.66;1476796;96;21086;-75
2022/10/30 02:02:43;;;;;;;9.87;5.43;;;;;;;10.73;100.00;99935.28;1476110;93;21090;-74
2022/10/30 02:05:15;;;;;;;12.90;5.92;;;;;;;10.75;100.00;99931.91;1463989;96;21377;-75
2022/10/30 02:07:42;;;;;;;10.30;5.20;;;;;;;10.73;100.00;99929.38;1464538;97;21101;-77
2022/10/30 02:10:09;;;;;;;10.20;5.35;;;;;;;10.74;100.00;99945.09;1505476;93;21096;-76
2022/10/30 02:12:36;;;;;;;10.25;5.22;;;;;;;10.74;100.00;99932.92;1557941;92;21084;-75
2022/10/30 02:15:05;;;;;;;9.68;5.28;;;;;;;10.74;100.00;99932.41;1526521;93;21069;-75
2022/10/30 02:17:33;;;;;;;9.28;4.85;;;;;;;10.75;100.00;99930.56;1545784;93;21102;-74
2022/10/30 02:20:00;;;;;;;12.65;6.12;;;;;;;10.75;100.00;99925.98;1545930;93;21090;-75
2022/10/30 02:22:27;;;;;;;10.63;5.28;;;;;;;10.76;100.00;99929.01;1545842;93;21066;-75
2022/10/30 02:24:54;;;;;;;10.20;5.03;;;;;;;10.76;100.00;99937.64;1546036;93;21094;-75
2022/10/30 02:27:23;;;;;;;14.00;5.60;;;;;;;10.78;100.00;99941.88;1545651;93;21138;-76
2022/10/30 02:29:49;;;;;;;12.35;5.47;;;;;;;10.78;100.00;99948.63;1546825;92;21099;-75
2022/10/30 02:32:16;;;;;;;9.40;5.53;;;;;;;10.79;100.00;99945.41;1568003;91;21079;-74
2022/10/30 02:34:43;;;;;;;10.50;5.40;;;;;;;10.77;100.00;99940.17;1567841;91;21210;-73
2022/10/30 02:37:10;;;;;;;14.03;5.75;;;;;;;10.78;100.00;99931.05;1571538;89;21073;-76
2022/10/30 02:39:37;;;;;;;13.95;5.80;;;;;;;10.78;100.00;99929.70;1611089;89;21017;-75
2022/10/30 02:42:05;;;;;;;13.05;5.70;;;;;;;10.76;100.00;99920.06;1610652;89;21065;-74
2022/10/30 02:44:32;;;;;;;13.05;5.65;;;;;;;10.74;100.00;99928.34;1668965;85;21082;-76
2022/10/30 02:47:00;;;;;;;12.55;5.40;;;;;;;10.74;100.00;99913.98;1706420;84;21561;-75
2022/10/30 02:49:27;;;;;;;8.90;5.17;;;;;;;10.71;100.00;99916.55;1735412;83;21046;-75
2022/10/30 02:51:54;;;;;;;10.93;5.53;;;;;;;10.70;100.00;99914.84;1735992;83;21495;-76
2022/10/30 02:54:21;;;;;;;12.55;5.92;;;;;;;10.70;100.00;99908.61;1743618;81;21072;-76
2022/10/30 02:56:49;;;;;;;11.03;5.75;;;;;;;10.68;100.00;99907.91;1766206;81;20995;-73
2022/10/30 02:59:16;;;;;;;12.85;6.30;;;;;;;10.68;100.00;99911.48;1765925;80;20987;-74
2022/10/30 03:01:43;;;;;;;10.32;5.15;;;;;;;10.68;100.00;99904.72;1766225;81;20995;-75
2022/10/30 03:04:09;;;;;;;13.75;5.87;;;;;;;10.68;100.00;99902.02;1765879;81;21119;-75
2022/10/30 03:06:38;;;;;;;11.68;5.72;;;;;;;10.69;100.00;99896.92;1765942;80;21496;-76
2022/10/30 03:09:05;;;;;;;10.75;5.60;;;;;;;10.71;100.00;99894.05;1766042;81;21496;-75
2022/10/30 03:11:33;;;;;;;13.00;5.90;;;;;;;10.72;100.00;99884.93;1766172;81;21014;-75
2022/10/30 03:14:00;;;;;;;13.00;5.72;;;;;;;10.73;100.00;99890.17;1798814;79;21031;-74
2022/10/30 03:16:32;;;;;;;12.00;6.17;;;;;;;10.75;100.00;99888.64;1814047;79;21003;-75
2022/10/30 03:18:59;;;;;;;9.83;5.33;;;;;;;10.76;100.00;99884.91;1813904;79;21485;-74
2022/10/30 03:21:28;;;;;;;13.13;5.83;;;;;;;10.77;100.00;99887.44;1813684;79;21020;-75
2022/10/30 03:23:56;;;;;;;13.55;6.65;;;;;;;10.78;100.00;99883.73;1813975;79;20975;-76
2022/10/30 03:26:23;;;;;;;13.55;6.37;;;;;;;10.79;100.00;99890.80;1813923;79;21528;-74
2022/10/30 03:28:57;;;;;;;12.65;6.58;;;;;;;10.80;100.00;99878.98;1810938;79;20987;-75
2022/10/30 03:31:24;;;;;;;12.73;6.10;;;;;;;10.81;100.00;99867.64;1813941;79;20987;-74
2022/10/30 03:33:52;;;;;;;11.45;5.40;;;;;;;10.80;100.00;99868.16;1810300;79;21034;-74
2022/10/30 03:36:19;;;;;;;14.40;6.22;;;;;;;10.80;100.00;99868.64;1813733;79;21050;-75
2022/10/30 03:38:47;;;;;;;14.70;6.25;;;;;;;10.81;100.00;99872.53;1814133;79;21041;-77
2022/10/30 03:41:15;;;;;;;11.40;6.15;;;;;;;10.80;100.00;99867.30;1814210;79;21017;-77
2022/10/30 03:43:44;;;;;;;12.47;5.95;;;;;;;10.81;100.00;99864.94;1813957;79;21030;-75
2022/10/30 03:46:12;;;;;;;14.85;6.25;;;;;;;10.80;100.00;99870.00;1813777;79;21022;-75
2022/10/30 03:48:40;;;;;;;12.98;6.22;;;;;;;10.80;100.00;99867.30;1813823;79;21485;-76
2022/10/30 03:51:09;;;;;;;12.85;6.15;;;;;;;10.80;100.00;99861.88;1813857;79;21023;-74
2022/10/30 03:53:36;;;;;;;13.53;6.00;;;;;;;10.80;100.00;99863.23;1814236;79;20995;-75
2022/10/30 03:56:03;;;;;;;12.45;6.30;;;;;;;10.80;100.00;99853.77;1814155;79;21514;-76
2022/10/30 03:58:33;;;;;;;13.88;6.85;;;;;;;10.81;100.00;99860.88;1810988;79;21032;-76
2022/10/30 04:01:05;;;;;;;11.93;6.42;;;;;;;10.81;100.00;99856.82;1814066;79;21004;-75
2022/10/30 04:03:33;;;;;;;10.80;6.20;;;;;;;10.81;100.00;99863.58;1814252;79;20972;-75
2022/10/30 04:06:01;;;;;;;14.28;6.28;;;;;;;10.81;100.00;99860.36;1813913;79;21043;-74
2022/10/30 04:08:28;;;;;;;11.18;5.62;;;;;;;10.80;100.00;99862.75;1813998;79;21454;-76
2022/10/30 04:10:56;;;;;;;11.53;6.08;;;;;;;10.81;100.00;99853.59;1813691;79;21494;-75
2022/10/30 04:13:24;;;;;;;12.88;6.80;;;;;;;10.81;100.00;99863.06;1818798;78;21043;-74
2022/10/30 04:15:52;;;;;;;19.07;6.50;;;;;;;10.81;100.00;99854.95;1828417;78;21032;-74
2022/10/30 04:18:21;;;;;;;14.60;6.60;;;;;;;10.82;100.00;99854.46;1828417;78;20988;-74
2022/10/30 04:20:49;;;;;;;13.10;6.87;;;;;;;10.80;100.00;99849.23;1828164;78;21051;-75
2022/10/30 04:23:18;;;;;;;15.48;6.22;;;;;;;10.81;100.00;99856.82;1828135;78;21513;-76
2022/10/30 04:25:45;;;;;;;12.88;5.95;;;;;;;10.80;100.00;99857.83;1828108;78;21017;-74
2022/10/30 04:28:12;;;;;;;13.88;6.42;;;;;;;10.79;100.00;99859.70;1828344;78;20960;-74
2022/10/30 04:30:39;;;;;;;13.90;6.53;;;;;;;10.79;100.00;99850.23;1828006;78;21020;-74
2022/10/30 04:33:10;;;;;;;16.23;6.37;;;;;;;10.79;100.00;99852.10;1828077;78;21035;-75
2022/10/30 04:35:39;;;;;;;13.35;6.58;;;;;;;10.79;100.00;99841.28;1828092;78;21070;-75
2022/10/30 04:38:14;;;;;;;11.55;5.92;;;;;;;10.79;100.00;99848.87;1827623;78;21059;-75
2022/10/30 04:40:43;;;;;;;12.15;5.72;;;;;;;10.80;100.00;99841.59;1828191;78;21019;-75
2022/10/30 04:43:11;;;;;;;11.75;6.33;;;;;;;10.79;100.00;99831.30;1827981;78;21031;-75
2022/10/30 04:45:40;;;;;;;12.03;6.33;;;;;;;10.79;100.00;99829.11;1829986;78;21504;-75
2022/10/30 04:48:12;;;;;;;9.95;5.75;;;;;;;10.78;100.00;99832.83;1829090;78;20981;-76
2022/10/30 04:50:40;;;;;;;13.48;6.22;;;;;;;10.78;100.00;99822.01;1828324;78;21032;-73
2022/10/30 04:53:14;;;;;;;11.30;6.30;;;;;;;10.78;100.00;99826.93;1828016;78;21004;-73
2022/10/30 04:55:43;;;;;;;11.03;6.08;;;;;;;10.78;100.00;99828.77;1801432;78;20997;-75
2022/10/30 04:58:10;;;;;;;15.03;6.30;;;;;;;10.77;100.00;99825.75;1795709;80;20973;-74
2022/10/30 05:00:40;;;;;;;12.47;6.05;;;;;;;10.75;100.00;99825.09;1795776;78;21029;-75
2022/10/30 05:03:19;;;;;;;10.23;5.55;;;;;;;10.74;100.00;99822.88;1795475;78;21028;-74
2022/10/30 05:05:50;;;;;;;14.53;6.22;;;;;;;10.74;100.00;99825.58;1730690;83;20972;-75
2022/10/30 05:08:17;;;;;;;14.70;7.05;;;;;;;10.76;100.00;99820.83;1669647;86;21517;-74
2022/10/30 05:10:44;;;;;;;11.55;6.55;;;;;;;10.77;100.00;99823.05;1669744;84;21055;-74
2022/10/30 05:13:12;;;;;;;15.65;7.45;;;;;;;10.77;100.00;99818.98;1665472;86;21059;-75
2022/10/30 05:15:39;;;;;;;12.58;6.15;;;;;;;10.79;100.00;99822.35;1640782;87;21519;-74
2022/10/30 05:18:05;;;;;;;14.63;6.95;;;;;;;10.81;100.00;99821.66;1641028;87;21041;-75
2022/10/30 05:20:32;;;;;;;15.23;6.72;;;;;;;10.82;100.00;99826.06;1641022;87;21096;-75
2022/10/30 05:23:00;;;;;;;14.87;7.05;;;;;;;10.84;100.00;99824.02;1640868;87;21084;-74
2022/10/30 05:25:28;;;;;;;16.17;6.62;;;;;;;10.87;100.00;99820.97;1640771;86;21115;-74
2022/10/30 05:28:04;;;;;;;12.00;6.60;;;;;;;10.90;100.00;99806.23;1640761;87;21570;-74
2022/10/30 05:30:34;;;;;;;12.65;6.53;;;;;;;10.92;100.00;99799.60;1637588;86;21073;-74
2022/10/30 05:33:04;;;;;;;12.10;6.42;;;;;;;10.94;100.00;99777.30;1640922;87;21056;-74
2022/10/30 05:35:33;;;;;;;13.38;6.65;;;;;;;10.96;100.00;99778.44;1661689;86;21035;-73
2022/10/30 05:38:01;;;;;;;13.85;6.55;;;;;;;10.98;100.00;99771.02;1661871;86;21050;-74
2022/10/30 05:40:28;;;;;;;12.95;6.30;;;;;;;11.00;100.00;99771.67;1661985;86;21111;-74
2022/10/30 05:42:55;;;;;;;12.03;6.83;;;;;;;11.01;100.00;99794.49;1661606;86;21050;-74
2022/10/30 05:45:23;;;;;;;14.73;7.28;;;;;;;11.02;100.00;99815.62;1661886;86;21401;-74
2022/10/30 05:48:00;;;;;;;14.73;7.08;;;;;;;11.05;100.00;99845.03;1661577;86;21099;-73
2022/10/30 05:50:29;;;;;;;13.60;6.83;;;;;;;11.07;100.00;99832.67;1661900;86;21026;-74
2022/10/30 05:53:02;;;;;;;11.40;5.87;;;;;;;11.08;100.00;99813.53;1658070;86;21058;-74
2022/10/30 05:55:30;;;;;;;;;;;;;;;11.09;100.00;99803.57;1664218;86;21502;-74
2022/10/30 05:58:09;;;;;;;12.78;6.67;;;;;;;11.10;100.00;99803.39;1658520;86;20146;-74
2022/10/30 06:00:39;;;;;;;13.28;5.67;;;;;;;11.09;100.00;99754.34;1661885;86;21052;-75
2022/10/30 06:03:10;;;;;;;12.80;6.47;;;;;;;11.10;100.00;99720.87;1705891;83;21050;-74
2022/10/30 06:05:45;;;;;;;15.20;6.15;;;;;;;11.08;100.00;99683.66;1723817;83;21480;-72
2022/10/30 06:08:15;;;;;;;17.47;7.30;;;;;;;11.09;100.00;99727.81;1725365;83;21097;-71
2022/10/30 06:10:42;;;;;;;16.15;6.60;;;;;;;11.09;100.00;99796.80;1725248;83;21523;-71
2022/10/30 06:13:20;;;;;;;13.65;6.78;;;;;;;11.08;100.00;99803.22;1721932;82;21535;-72
2022/10/30 06:15:48;;;;;;;15.68;7.40;;;;;;;11.08;100.00;99791.88;1632388;88;21557;-70
2022/10/30 06:18:16;;;;;;;15.70;7.15;;;;;;;11.07;100.00;99778.05;1632195;88;21642;-72
2022/10/30 06:20:44;;;;;;;14.03;6.85;;;;;;;11.07;100.00;99759.63;1632321;86;21562;-72
2022/10/30 06:23:14;;;;;;;14.85;7.08;;;;;;;11.06;100.00;99806.62;1580225;91;21604;-71
2022/10/30 06:25:50;;;;;;;15.45;6.83;;;;;;;11.07;100.00;99812.38;1580241;91;21115;-70
2022/10/30 06:28:21;;;;;;;12.85;6.37;;;;;;;11.07;100.00;99817.27;1580494;91;21050;-70
2022/10/30 06:30:50;;;;;;;12.40;6.12;;;;;;;11.06;100.00;99807.46;1580177;91;21100;-70
2022/10/30 06:33:17;;;;;;;13.83;6.65;;;;;;;11.07;100.00;99806.45;1571224;91;21082;-71
2022/10/30 06:35:50;;;;;;;14.07;6.78;;;;;;;11.09;100.00;99805.75;1572944;90;21098;-70
2022/10/30 06:38:18;;;;;;;14.93;7.08;;;;;;;11.12;100.00;99809.95;1570306;91;21042;-71
2022/10/30 06:40:48;;;;;;;15.58;7.22;;;;;;;11.13;100.00;99804.36;1570210;91;21074;-71
2022/10/30 06:43:33;;;;;;;13.90;6.87;;;;;;;11.14;100.00;99801.17;1570325;91;21042;-73
2022/10/30 06:46:06;;;;;;;16.17;6.87;;;;;;;11.15;100.00;99800.12;1580869;91;21082;-70
2022/10/30 06:48:34;;;;;;;11.45;6.12;;;;;;;11.16;100.00;99802.66;1581025;91;21118;-69
2022/10/30 06:51:02;;;;;;;13.20;6.35;;;;;;;11.20;100.00;99803.13;1580950;91;21179;-71
2022/10/30 06:53:30;;;;;;;16.65;7.58;;;;;;;11.23;100.00;99798.72;1604908;88;21130;-70
2022/10/30 06:56:02;;;;;;;13.25;6.62;;;;;;;11.28;100.00;99792.75;1645747;87;21054;-70
2022/10/30 06:58:37;;;;;;;;;;;;;;;11.31;100.00;99791.03;1591749;90;21060;-70
2022/10/30 07:01:05;;;;;;;13.08;6.28;;;;;;;11.34;100.00;99794.74;1598379;89;20479;-71
2022/10/30 07:03:36;;;;;;;14.30;6.65;;;;;;;11.37;100.00;99793.03;1606544;89;21045;-72
2022/10/30 07:06:05;;;;;;;16.07;6.78;;;;;;;11.39;100.00;99795.87;1606206;89;21117;-72
2022/10/30 07:08:32;;;;;;;17.50;7.22;;;;;;;11.42;100.00;99789.76;1606523;89;21038;-73
2022/10/30 07:10:59;;;;;;;12.33;6.35;;;;;;;11.42;100.00;99789.27;1606434;89;21038;-74
2022/10/30 07:13:37;;;;;;;13.65;6.55;;;;;;;11.42;100.00;99782.98;1606361;89;21042;-73
2022/10/30 07:16:07;;;;;;;14.35;6.22;;;;;;;11.43;100.00;99781.45;1606129;88;21077;-73
2022/10/30 07:18:38;;;;;;;14.73;6.83;;;;;;;11.46;100.00;99775.69;1606502;89;21563;-73
2022/10/30 07:21:06;;;;;;;14.53;6.72;;;;;;;11.51;100.00;99775.11;1606993;89;21078;-73
2022/10/30 07:23:33;;;;;;;18.23;8.23;;;;;;;11.56;100.00;99774.92;1609098;89;21034;-73
2022/10/30 07:26:06;;;;;;;15.25;7.40;;;;;;;11.61;100.00;99772.16;1538130;93;21126;-73
2022/10/30 07:28:54;;;;;;;15.78;7.67;;;;;;;11.66;100.00;99771.93;1537805;93;21120;-73
2022/10/30 07:31:30;;;;;;;13.05;6.60;;;;;;;11.71;100.00;99763.27;1534777;93;21184;-72
2022/10/30 07:34:01;;;;;;;14.18;7.00;;;;;;;11.77;100.00;99745.77;1474319;96;21107;-73
2022/10/30 07:36:37;;;;;;;14.83;7.05;;;;;;;11.84;100.00;99749.90;1481595;97;21191;-72
2022/10/30 07:39:12;;;;;;;15.65;7.35;;;;;;;11.91;100.00;99744.09;1493627;96;21170;-73
2022/10/30 07:41:56;;;;;;;17.05;8.33;;;;;;;12.00;100.00;99733.17;1513917;90;21153;-73
2022/10/30 07:44:41;;;;;;;14.85;7.28;;;;;;;12.18;100.00;99727.34;1577551;91;21168;-74
2022/10/30 07:47:16;;;;;;;13.53;7.00;;;;;;;12.37;100.00;99725.92;1577286;91;21071;-72
2022/10/30 07:49:48;;;;;;;16.93;7.80;;;;;;;12.51;100.00;99720.97;1545743;93;21543;-72
2022/10/30 07:52:15;;;;;;;18.30;8.10;;;;;;;12.60;100.00;99716.27;1545847;93;21114;-73
2022/10/30 07:54:42;;;;;;;18.45;7.90;;;;;;;12.68;100.00;99703.95;1556500;91;21046;-72
2022/10/30 07:57:10;;;;;;;18.05;7.83;;;;;;;12.77;100.00;99696.53;1571394;91;21671;-73
2022/10/30 07:59:56;;;;;;;16.02;7.47;;;;;;;12.83;100.00;99680.82;1571571;91;21087;-73
2022/10/30 08:02:41;;;;;;;13.70;7.10;;;;;;;12.86;100.00;99660.09;1576157;89;21078;-72
2022/10/30 08:05:26;;;;;;;15.78;7.85;;;;;;;12.90;100.00;99635.06;1563271;91;21083;-72
2022/10/30 08:07:58;;;;;;;16.85;7.05;;;;;;;12.91;100.00;99610.14;1536807;93;21080;-70
2022/10/30 08:10:25;;;;;;;17.65;7.58;;;;;;;12.88;100.00;99592.36;1546246;87;21084;-73
2022/10/30 08:12:54;;;;;;;16.35;7.85;;;;;;;12.88;100.00;99576.09;1639577;87;21047;-75
2022/10/30 08:15:21;;;;;;;17.25;7.60;;;;;;;12.93;100.00;99565.18;1629816;87;21063;-73
2022/10/30 08:17:50;;;;;;;16.27;7.65;;;;;;;13.03;100.00;99557.00;1625620;88;21615;-74
2022/10/30 08:20:22;;;;;;;14.68;7.28;;;;;;;13.24;100.00;99549.80;1625629;88;21095;-78
2022/10/30 08:22:52;;;;;;;17.98;7.15;;;;;;;13.47;100.00;99540.88;1625768;88;21071;-75
2022/10/30 08:25:27;;;;;;;17.57;8.33;;;;;;;13.73;100.00;99525.70;1625583;88;21079;-72
2022/10/30 08:28:03;;;;;;;17.35;7.95;;;;;;;13.91;100.00;99507.99;1625667;88;21087;-74
2022/10/30 08:30:34;;;;;;;15.32;7.20;;;;;;;14.06;100.00;99478.75;1623195;88;21047;-73
2022/10/30 08:33:04;;;;;;;17.57;7.92;;;;;;;14.19;100.00;99448.02;1626011;88;21095;-73
2022/10/30 08:35:35;;;;;;;21.95;8.33;;;;;;;14.34;100.00;99428.25;1609999;89;21099;-73
2022/10/30 08:38:04;;;;;;;15.40;7.62;;;;;;;14.43;100.00;99397.59;1609780;89;21676;-74
2022/10/30 08:40:34;;;;;;;17.02;8.13;;;;;;;14.42;100.00;99357.30;1610056;89;21115;-73
2022/10/30 08:43:05;;;;;;;16.97;8.58;;;;;;;14.39;100.00;99318.27;1609973;89;21537;-73
2022/10/30 08:45:33;;;;;;;18.23;8.05;;;;;;;14.37;100.00;99289.10;1612352;88;21124;-73
2022/10/30 08:48:05;;;;;;;16.73;7.45;;;;;;;14.33;100.00;99268.84;1596658;90;21106;-71
2022/10/30 08:50:34;;;;;;;16.12;8.18;;;;;;;14.26;100.00;99242.19;1595022;90;21138;-72
2022/10/30 08:53:06;;;;;;;15.90;8.15;;;;;;;14.27;100.00;99218.55;1586313;90;21036;-71
2022/10/30 08:55:33;;;;;;;19.77;8.30;;;;;;;14.26;100.00;99193.25;1592352;89;20997;-71
2022/10/30 08:58:01;;;;;;;17.10;8.18;;;;;;;14.19;100.00;99176.13;1618306;89;21526;-71
2022/10/30 09:00:28;;;;;;;19.60;7.80;;;;;;;14.13;100.00;99158.80;1618225;89;21146;-71
2022/10/30 09:03:03;;;;;;;15.40;7.42;;;;;;;14.10;100.00;99151.61;1527579;94;21105;-71
2022/10/30 09:05:50;;;;;;;20.25;7.83;;;;;;;14.09;100.00;99141.77;1468296;95;21176;-71
2022/10/30 09:08:17;;;;;;;19.30;8.23;;;;;;;14.05;100.00;99123.16;1467821;98;21114;-71
2022/10/30 09:10:59;;;;;;;14.03;7.45;;;;;;;14.07;100.00;99112.61;1470446;96;21642;-71
2022/10/30 09:13:27;;;;;;;14.15;7.22;;;;;;;14.10;100.00;99100.78;1484745;95;21102;-71
2022/10/30 09:16:00;;;;;;;14.45;7.12;;;;;;;14.15;100.00;99100.14;1501267;95;21280;-71
2022/10/30 09:18:28;;;;;;;14.28;6.65;;;;;;;14.20;100.00;99096.22;1488872;96;21131;-70
2022/10/30 09:20:57;;;;;;;16.20;6.78;;;;;;;14.22;100.00;99088.70;1489236;96;21178;-71
2022/10/30 09:23:24;;;;;;;13.62;5.95;;;;;;;14.14;100.00;99078.90;1489191;96;21153;-71
2022/10/30 09:25:54;;;;;;;14.13;5.83;;;;;;;14.01;100.00;99062.14;1488858;95;21175;-71
2022/10/30 09:28:28;;;;;;;16.05;6.15;;;;;;;13.88;100.00;99062.73;1465274;98;21113;-70
2022/10/30 09:31:00;;;;;;;14.55;5.78;;;;;;;13.76;100.00;99070.75;1466766;97;21653;-72
2022/10/30 09:33:29;;;;;;;11.93;5.87;;;;;;;13.67;100.00;99081.84;1466924;98;21102;-71
2022/10/30 09:36:07;;;;;;;13.45;5.67;;;;;;;13.64;100.00;99082.27;1434748;100;21126;-69
2022/10/30 09:38:34;;;;;;;21.93;6.40;;;;;;;13.70;100.00;99079.74;1421675;101;21708;-70
2022/10/30 09:41:25;;;;;;;13.25;6.20;;;;;;;13.78;100.00;99080.88;1460527;98;21058;-70
2022/10/30 09:44:00;;;;;;;10.48;5.60;;;;;;;13.94;100.00;99072.22;1490010;96;21563;-72
2022/10/30 09:46:51;;;;;;;13.28;5.85;;;;;;;14.18;100.00;99065.70;1504677;95;21166;-71
2022/10/30 09:49:27;;;;;;;10.32;5.53;;;;;;;14.39;100.00;99064.53;1483968;97;21117;-71
2022/10/30 09:52:21;;;;;;;7.92;4.62;;;;;;;14.55;100.00;99063.16;1385817;104;21206;-71
2022/10/30 09:55:27;;;;;;;11.63;5.45;;;;;;;14.66;100.00;99072.02;1427749;101;21142;-71
2022/10/30 09:58:34;;;;;;;12.98;5.28;;;;;;;14.71;100.00;99083.04;1429318;101;21178;-72
2022/10/30 10:01:18;;;;;;;6.65;4.95;;;;;;;14.71;100.00;99093.92;1427973;101;21136;-72
2022/10/30 10:03:59;;;;;;;8.70;4.97;;;;;;;14.70;100.00;99109.96;1428202;101;21626;-75
2022/10/30 10:06:46;;;;;;;7.70;5.17;;;;;;;14.70;100.00;99127.65;1428139;101;21458;-74
2022/10/30 10:09:21;;;;;;;6.72;5.17;;;;;;;14.72;100.00;99132.87;1387708;102;21157;-76
2022/10/30 10:12:09;;;;;;;10.70;5.40;;;;;;;14.74;100.00;99142.47;1394519;99;21732;-74
2022/10/30 10:14:42;;;;;;;9.70;5.35;;;;;;;14.75;100.00;99148.73;1393431;101;21150;-73
2022/10/30 10:17:12;;;;;;;11.18;5.00;;;;;;;14.89;100.00;99142.17;1468710;98;21114;-73
2022/10/30 10:20:00;;;;;;;8.65;5.30;;;;;;;15.10;100.00;99142.83;1424850;101;21600;-75
2022/10/30 10:22:38;;;;;;;12.13;5.58;;;;;;;15.36;100.00;99145.30;1424939;101;21153;-75
2022/10/30 10:25:09;;;;;;;11.05;5.90;;;;;;;15.60;100.00;99165.09;1418092;101;21161;-74
2022/10/30 10:28:03;;;;;;;12.60;6.75;;;;;;;15.83;100.00;99170.77;1407727;102;21186;-74
2022/10/30 10:30:39;;;;;;;14.78;7.90;;;;;;;15.95;100.00;99185.81;1407635;102;21169;-74
2022/10/30 10:33:53;;;;;;;15.05;7.15;;;;;;;15.95;100.00;99200.81;1371480;105;21133;-75
2022/10/30 10:36:54;;;;;;;14.75;7.78;;;;;;;15.87;100.00;99203.86;1371403;103;21177;-76
2022/10/30 10:39:56;;;;;;;13.45;6.62;;;;;;;15.99;100.00;99201.19;1382277;102;21132;-76
2022/10/30 10:42:46;;;;;;;15.25;6.80;;;;;;;16.14;100.00;99205.74;1393208;103;21152;-75
2022/10/30 10:45:42;;;;;;;11.63;6.45;;;;;;;16.27;100.00;99223.33;1393288;102;21606;-75
2022/10/30 10:48:42;;;;;;;11.95;6.20;;;;;;;16.27;100.00;99232.88;1439790;99;21089;-75
2022/10/30 10:51:17;;;;;;;14.33;6.78;;;;;;;16.33;100.00;99245.59;1450438;99;21172;-75
2022/10/30 10:53:52;;;;;;;17.57;6.55;;;;;;;16.42;100.00;99265.21;1455794;97;21139;-74
2022/10/30 10:56:20;;;;;;;9.85;5.95;;;;;;;16.47;100.00;99284.47;1430717;100;21112;-75
2022/10/30 10:58:55;;;;;;;18.25;7.95;;;;;;;16.53;100.00;99284.61;1430398;99;21185;-74
2022/10/30 11:01:39;;;;;;;13.50;7.20;;;;;;;16.66;100.00;99289.38;1409896;100;21069;-74
2022/10/30 11:04:27;;;;;;;12.98;6.83;;;;;;;16.84;100.00;99279.53;1409985;102;21121;-74
2022/10/30 11:06:55;;;;;;;11.30;6.50;;;;;;;16.99;100.00;99287.30;1389228;103;21156;-74
2022/10/30 11:09:23;;;;;;;7.97;5.37;;;;;;;16.98;100.00;99308.84;1389141;103;21668;-75
2022/10/30 11:11:53;;;;;;;10.65;5.60;;;;;;;17.02;100.00;99320.98;1389245;103;21190;-73
2022/10/30 11:14:24;;;;;;;13.58;5.75;;;;;;;16.98;100.00;99346.56;1389105;103;21659;-74
2022/10/30 11:17:08;;;;;;;12.30;5.95;;;;;;;16.65;100.00;99352.39;1395402;98;21167;-74
2022/10/30 11:19:35;;;;;;;10.08;5.55;;;;;;;16.41;100.00;99348.66;1469113;98;21133;-74
2022/10/30 11:22:03;;;;;;;12.55;6.03;;;;;;;16.30;100.00;99345.61;1468619;98;21598;-74
2022/10/30 11:24:33;;;;;;;11.85;6.83;;;;;;;16.28;100.00;99336.81;1464775;98;21081;-74
2022/10/30 11:27:27;;;;;;;12.18;6.28;;;;;;;16.29;100.00;99323.50;1395325;103;21133;-74
2022/10/30 11:29:58;;;;;;;14.13;6.10;;;;;;;16.25;100.00;99324.16;1415280;100;21626;-75
2022/10/30 11:32:29;;;;;;;11.30;6.00;;;;;;;16.10;100.00;99321.80;1474137;96;21122;-74
2022/10/30 11:35:11;;;;;;;13.05;6.30;;;;;;;15.99;100.00;99315.20;1474086;96;21587;-74
2022/10/30 11:37:40;;;;;;;9.80;5.62;;;;;;;15.93;100.00;99325.62;1473070;97;21094;-75
2022/10/30 11:40:15;;;;;;;9.68;5.90;;;;;;;15.84;100.00;99332.41;1473914;96;21570;-74
2022/10/30 11:42:57;;;;;;;10.90;5.90;;;;;;;15.72;100.00;99330.90;1474228;97;21127;-75